sensor_id;sensor_type;location;lat;lon;timestamp;P1;durP1;ratioP1;P2;durP2;ratioP2
76475;SDS011;65308;50.078;14.854;2023-06-26T00:00:00;5.45;;;3.70;;
76475;SDS011;65308;50.078;14.854;2023-06-26T00:02:29;5.72;;;3.65;;
76475;SDS011;65308;50.078;14.854;2023-06-26T00:04:57;6.13;;;3.92;;
76475;SDS011;65308;50.078;14.854;2023-06-26T00:07:27;5.45;;;3.90;;
76475;SDS011;65308;50.078;14.854;2023-06-26T00:09:54;5.32;;;3.35;;
76475;SDS011;65308;50.078;14.854;2023-06-26T00:12:22;4.55;;;3.20;;
76475;SDS011;65308;50.078;14.854;2023-06-26T00:14:48;5.32;;;3.63;;
76475;SDS011;65308;50.078;14.854;2023-06-26T00:17:15;5.50;;;3.55;;
76475;SDS011;65308;50.078;14.854;2023-06-26T00:19:41;5.50;;;3.92;;
76475;SDS011;65308;50.078;14.854;2023-06-26T00:22:08;5.72;;;4.07;;
76475;SDS011;65308;50.078;14.854;2023-06-26T00:24:34;5.70;;;3.42;;
76475;SDS011;65308;50.078;14.854;2023-06-26T00:27:01;5.43;;;3.40;;
76475;SDS011;65308;50.078;14.854;2023-06-26T00:29:29;6.13;;;3.30;;
76475;SDS011;65308;50.078;14.854;2023-06-26T00:31:56;4.95;;;3.20;;
76475;SDS011;65308;50.078;14.854;2023-06-26T00:34:22;6.55;;;3.55;;
76475;SDS011;65308;50.078;14.854;2023-06-26T00:36:49;5.10;;;3.38;;
76475;SDS011;65308;50.078;14.854;2023-06-26T00:39:15;5.57;;;3.65;;
76475;SDS011;65308;50.078;14.854;2023-06-26T00:41:42;4.85;;;3.38;;
76475;SDS011;65308;50.078;14.854;2023-06-26T00:44:08;6.00;;;3.55;;
76475;SDS011;65308;50.078;14.854;2023-06-26T00:46:36;5.20;;;3.50;;
76475;SDS011;65308;50.078;14.854;2023-06-26T00:49:03;5.40;;;3.42;;
76475;SDS011;65308;50.078;14.854;2023-06-26T00:51:30;5.47;;;3.40;;
76475;SDS011;65308;50.078;14.854;2023-06-26T00:53:57;7.88;;;3.50;;
76475;SDS011;65308;50.078;14.854;2023-06-26T00:56:24;4.93;;;3.28;;
76475;SDS011;65308;50.078;14.854;2023-06-26T00:58:50;5.30;;;3.55;;
76475;SDS011;65308;50.078;14.854;2023-06-26T01:01:17;5.75;;;3.20;;
76475;SDS011;65308;50.078;14.854;2023-06-26T01:03:49;5.38;;;3.53;;
76475;SDS011;65308;50.078;14.854;2023-06-26T01:06:17;5.70;;;3.75;;
76475;SDS011;65308;50.078;14.854;2023-06-26T01:08:44;6.43;;;3.63;;
76475;SDS011;65308;50.078;14.854;2023-06-26T01:11:11;4.70;;;3.20;;
76475;SDS011;65308;50.078;14.854;2023-06-26T01:13:40;7.20;;;3.70;;
76475;SDS011;65308;50.078;14.854;2023-06-26T01:16:09;5.78;;;3.97;;
76475;SDS011;65308;50.078;14.854;2023-06-26T01:18:37;5.57;;;3.47;;
76475;SDS011;65308;50.078;14.854;2023-06-26T01:21:08;5.25;;;3.58;;
76475;SDS011;65308;50.078;14.854;2023-06-26T01:23:36;5.03;;;3.20;;
76475;SDS011;65308;50.078;14.854;2023-06-26T01:26:17;6.13;;;3.42;;
76475;SDS011;65308;50.078;14.854;2023-06-26T01:28:45;7.05;;;3.70;;
76475;SDS011;65308;50.078;14.854;2023-06-26T01:31:12;4.97;;;3.35;;
76475;SDS011;65308;50.078;14.854;2023-06-26T01:33:40;5.60;;;3.42;;
76475;SDS011;65308;50.078;14.854;2023-06-26T01:36:07;5.93;;;3.63;;
76475;SDS011;65308;50.078;14.854;2023-06-26T01:38:34;6.97;;;4.00;;
76475;SDS011;65308;50.078;14.854;2023-06-26T01:41:00;5.75;;;3.30;;
76475;SDS011;65308;50.078;14.854;2023-06-26T01:43:43;6.55;;;3.80;;
76475;SDS011;65308;50.078;14.854;2023-06-26T01:46:19;6.40;;;4.05;;
76475;SDS011;65308;50.078;14.854;2023-06-26T01:48:49;5.53;;;3.75;;
76475;SDS011;65308;50.078;14.854;2023-06-26T01:51:30;6.13;;;3.95;;
76475;SDS011;65308;50.078;14.854;2023-06-26T01:53:58;6.13;;;3.50;;
76475;SDS011;65308;50.078;14.854;2023-06-26T01:56:27;5.55;;;3.72;;
76475;SDS011;65308;50.078;14.854;2023-06-26T01:58:56;6.07;;;3.50;;
76475;SDS011;65308;50.078;14.854;2023-06-26T02:01:23;5.10;;;3.20;;
76475;SDS011;65308;50.078;14.854;2023-06-26T02:03:50;6.00;;;3.95;;
76475;SDS011;65308;50.078;14.854;2023-06-26T02:06:16;5.10;;;3.30;;
76475;SDS011;65308;50.078;14.854;2023-06-26T02:08:43;5.95;;;3.25;;
76475;SDS011;65308;50.078;14.854;2023-06-26T02:11:10;4.38;;;2.97;;
76475;SDS011;65308;50.078;14.854;2023-06-26T02:13:36;6.43;;;3.53;;
76475;SDS011;65308;50.078;14.854;2023-06-26T02:16:04;6.05;;;3.53;;
76475;SDS011;65308;50.078;14.854;2023-06-26T02:18:31;5.93;;;3.53;;
76475;SDS011;65308;50.078;14.854;2023-06-26T02:20:57;5.53;;;3.63;;
76475;SDS011;65308;50.078;14.854;2023-06-26T02:23:24;6.28;;;3.50;;
76475;SDS011;65308;50.078;14.854;2023-06-26T02:25:51;5.10;;;3.10;;
76475;SDS011;65308;50.078;14.854;2023-06-26T02:28:17;5.53;;;3.40;;
76475;SDS011;65308;50.078;14.854;2023-06-26T02:30:44;6.03;;;3.35;;
76475;SDS011;65308;50.078;14.854;2023-06-26T02:33:12;5.45;;;3.40;;
76475;SDS011;65308;50.078;14.854;2023-06-26T02:35:38;6.38;;;4.18;;
76475;SDS011;65308;50.078;14.854;2023-06-26T02:38:05;6.20;;;3.63;;
76475;SDS011;65308;50.078;14.854;2023-06-26T02:40:31;5.70;;;3.33;;
76475;SDS011;65308;50.078;14.854;2023-06-26T02:42:58;4.20;;;2.85;;
76475;SDS011;65308;50.078;14.854;2023-06-26T02:45:25;7.38;;;3.40;;
76475;SDS011;65308;50.078;14.854;2023-06-26T02:47:52;6.22;;;3.35;;
76475;SDS011;65308;50.078;14.854;2023-06-26T02:50:19;9.48;;;3.30;;
76475;SDS011;65308;50.078;14.854;2023-06-26T02:52:46;6.55;;;4.10;;
76475;SDS011;65308;50.078;14.854;2023-06-26T02:55:15;6.47;;;3.47;;
76475;SDS011;65308;50.078;14.854;2023-06-26T02:57:42;8.27;;;4.05;;
76475;SDS011;65308;50.078;14.854;2023-06-26T03:00:09;7.07;;;3.60;;
76475;SDS011;65308;50.078;14.854;2023-06-26T03:02:36;6.55;;;3.50;;
76475;SDS011;65308;50.078;14.854;2023-06-26T03:05:03;6.32;;;3.15;;
76475;SDS011;65308;50.078;14.854;2023-06-26T03:07:31;6.55;;;2.95;;
76475;SDS011;65308;50.078;14.854;2023-06-26T03:09:58;5.57;;;3.40;;
76475;SDS011;65308;50.078;14.854;2023-06-26T03:12:25;7.05;;;3.30;;
76475;SDS011;65308;50.078;14.854;2023-06-26T03:14:52;6.20;;;3.78;;
76475;SDS011;65308;50.078;14.854;2023-06-26T03:17:18;6.32;;;3.22;;
76475;SDS011;65308;50.078;14.854;2023-06-26T03:19:45;5.70;;;3.05;;
76475;SDS011;65308;50.078;14.854;2023-06-26T03:22:11;7.10;;;3.35;;
76475;SDS011;65308;50.078;14.854;2023-06-26T03:24:40;4.97;;;3.13;;
76475;SDS011;65308;50.078;14.854;2023-06-26T03:27:07;7.65;;;3.88;;
76475;SDS011;65308;50.078;14.854;2023-06-26T03:29:34;5.30;;;3.65;;
76475;SDS011;65308;50.078;14.854;2023-06-26T03:32:01;5.90;;;3.40;;
76475;SDS011;65308;50.078;14.854;2023-06-26T03:34:28;8.38;;;3.50;;
76475;SDS011;65308;50.078;14.854;2023-06-26T03:36:54;7.38;;;3.83;;
76475;SDS011;65308;50.078;14.854;2023-06-26T03:39:21;6.82;;;3.60;;
76475;SDS011;65308;50.078;14.854;2023-06-26T03:41:49;6.03;;;3.60;;
76475;SDS011;65308;50.078;14.854;2023-06-26T03:44:15;6.38;;;3.58;;
76475;SDS011;65308;50.078;14.854;2023-06-26T03:46:42;6.40;;;3.75;;
76475;SDS011;65308;50.078;14.854;2023-06-26T03:49:08;6.78;;;3.38;;
76475;SDS011;65308;50.078;14.854;2023-06-26T03:51:35;5.43;;;3.30;;
76475;SDS011;65308;50.078;14.854;2023-06-26T03:54:02;6.25;;;3.58;;
76475;SDS011;65308;50.078;14.854;2023-06-26T03:56:29;6.18;;;3.85;;
76475;SDS011;65308;50.078;14.854;2023-06-26T03:58:57;7.35;;;3.90;;
76475;SDS011;65308;50.078;14.854;2023-06-26T04:01:24;7.38;;;3.58;;
76475;SDS011;65308;50.078;14.854;2023-06-26T04:03:50;8.48;;;4.15;;
76475;SDS011;65308;50.078;14.854;2023-06-26T04:06:20;9.80;;;3.95;;
76475;SDS011;65308;50.078;14.854;2023-06-26T04:08:59;8.00;;;3.95;;
76475;SDS011;65308;50.078;14.854;2023-06-26T04:11:25;8.13;;;4.40;;
76475;SDS011;65308;50.078;14.854;2023-06-26T04:16:21;10.82;;;4.07;;
76475;SDS011;65308;50.078;14.854;2023-06-26T04:18:50;9.05;;;5.07;;
76475;SDS011;65308;50.078;14.854;2023-06-26T04:21:18;9.13;;;4.85;;
76475;SDS011;65308;50.078;14.854;2023-06-26T04:23:45;7.55;;;4.80;;
76475;SDS011;65308;50.078;14.854;2023-06-26T04:26:12;7.20;;;4.25;;
76475;SDS011;65308;50.078;14.854;2023-06-26T04:31:08;6.90;;;5.00;;
76475;SDS011;65308;50.078;14.854;2023-06-26T04:33:36;6.63;;;4.47;;
76475;SDS011;65308;50.078;14.854;2023-06-26T04:36:03;7.85;;;4.57;;
76475;SDS011;65308;50.078;14.854;2023-06-26T04:38:30;8.32;;;4.65;;
76475;SDS011;65308;50.078;14.854;2023-06-26T04:40:57;7.60;;;4.60;;
76475;SDS011;65308;50.078;14.854;2023-06-26T04:43:23;7.30;;;4.82;;
76475;SDS011;65308;50.078;14.854;2023-06-26T04:45:50;8.40;;;5.30;;
76475;SDS011;65308;50.078;14.854;2023-06-26T04:48:17;7.55;;;5.47;;
76475;SDS011;65308;50.078;14.854;2023-06-26T04:50:45;7.05;;;5.80;;
76475;SDS011;65308;50.078;14.854;2023-06-26T04:53:18;10.75;;;5.75;;
76475;SDS011;65308;50.078;14.854;2023-06-26T04:55:44;7.63;;;5.30;;
76475;SDS011;65308;50.078;14.854;2023-06-26T04:58:11;7.55;;;5.93;;
76475;SDS011;65308;50.078;14.854;2023-06-26T05:00:38;6.85;;;6.15;;
76475;SDS011;65308;50.078;14.854;2023-06-26T05:03:07;6.82;;;5.78;;
76475;SDS011;65308;50.078;14.854;2023-06-26T05:05:34;8.60;;;6.50;;
76475;SDS011;65308;50.078;14.854;2023-06-26T05:08:12;7.22;;;6.30;;
76475;SDS011;65308;50.078;14.854;2023-06-26T05:10:39;7.80;;;6.45;;
76475;SDS011;65308;50.078;14.854;2023-06-26T05:13:06;10.20;;;6.85;;
76475;SDS011;65308;50.078;14.854;2023-06-26T05:15:33;8.07;;;7.30;;
76475;SDS011;65308;50.078;14.854;2023-06-26T05:17:59;8.05;;;7.18;;
76475;SDS011;65308;50.078;14.854;2023-06-26T05:20:26;8.23;;;7.10;;
76475;SDS011;65308;50.078;14.854;2023-06-26T05:22:52;13.00;;;7.60;;
76475;SDS011;65308;50.078;14.854;2023-06-26T05:25:21;10.40;;;6.93;;
76475;SDS011;65308;50.078;14.854;2023-06-26T05:27:49;8.38;;;7.57;;
76475;SDS011;65308;50.078;14.854;2023-06-26T05:30:17;13.10;;;7.50;;
76475;SDS011;65308;50.078;14.854;2023-06-26T05:32:45;8.05;;;7.18;;
76475;SDS011;65308;50.078;14.854;2023-06-26T05:35:13;9.20;;;8.18;;
76475;SDS011;65308;50.078;14.854;2023-06-26T05:37:40;7.80;;;7.00;;
76475;SDS011;65308;50.078;14.854;2023-06-26T05:40:11;9.85;;;8.98;;
76475;SDS011;65308;50.078;14.854;2023-06-26T05:42:41;7.97;;;7.18;;
76475;SDS011;65308;50.078;14.854;2023-06-26T05:45:09;8.40;;;7.45;;
76475;SDS011;65308;50.078;14.854;2023-06-26T05:47:36;8.90;;;8.10;;
76475;SDS011;65308;50.078;14.854;2023-06-26T05:50:03;9.52;;;8.63;;
76475;SDS011;65308;50.078;14.854;2023-06-26T05:52:30;8.75;;;7.85;;
76475;SDS011;65308;50.078;14.854;2023-06-26T05:54:58;10.85;;;9.70;;
76475;SDS011;65308;50.078;14.854;2023-06-26T05:57:25;10.65;;;9.77;;
76475;SDS011;65308;50.078;14.854;2023-06-26T05:59:55;9.80;;;8.80;;
76475;SDS011;65308;50.078;14.854;2023-06-26T06:02:22;10.48;;;9.65;;
76475;SDS011;65308;50.078;14.854;2023-06-26T06:04:49;10.88;;;9.88;;
76475;SDS011;65308;50.078;14.854;2023-06-26T06:07:16;10.32;;;9.52;;
76475;SDS011;65308;50.078;14.854;2023-06-26T06:09:42;10.15;;;9.32;;
76475;SDS011;65308;50.078;14.854;2023-06-26T06:12:09;10.95;;;9.90;;
76475;SDS011;65308;50.078;14.854;2023-06-26T06:17:09;10.73;;;9.82;;
76475;SDS011;65308;50.078;14.854;2023-06-26T06:19:36;9.93;;;8.93;;
76475;SDS011;65308;50.078;14.854;2023-06-26T06:22:02;9.50;;;8.60;;
76475;SDS011;65308;50.078;14.854;2023-06-26T06:24:29;10.07;;;9.23;;
76475;SDS011;65308;50.078;14.854;2023-06-26T06:26:56;10.15;;;9.35;;
76475;SDS011;65308;50.078;14.854;2023-06-26T06:29:22;12.95;;;12.05;;
76475;SDS011;65308;50.078;14.854;2023-06-26T06:31:49;14.10;;;13.10;;
76475;SDS011;65308;50.078;14.854;2023-06-26T06:34:17;13.25;;;12.32;;
76475;SDS011;65308;50.078;14.854;2023-06-26T06:36:44;13.30;;;12.38;;
76475;SDS011;65308;50.078;14.854;2023-06-26T06:39:11;12.75;;;11.95;;
76475;SDS011;65308;50.078;14.854;2023-06-26T06:41:37;13.05;;;12.23;;
76475;SDS011;65308;50.078;14.854;2023-06-26T06:44:04;14.75;;;13.77;;
76475;SDS011;65308;50.078;14.854;2023-06-26T06:46:31;13.73;;;12.57;;
76475;SDS011;65308;50.078;14.854;2023-06-26T06:48:57;15.70;;;14.60;;
76475;SDS011;65308;50.078;14.854;2023-06-26T06:51:26;15.15;;;14.15;;
76475;SDS011;65308;50.078;14.854;2023-06-26T06:53:53;15.27;;;14.27;;
76475;SDS011;65308;50.078;14.854;2023-06-26T06:56:19;14.50;;;13.43;;
76475;SDS011;65308;50.078;14.854;2023-06-26T06:58:46;16.88;;;15.88;;
76475;SDS011;65308;50.078;14.854;2023-06-26T07:01:13;16.85;;;15.80;;
76475;SDS011;65308;50.078;14.854;2023-06-26T07:06:06;17.00;;;16.08;;
76475;SDS011;65308;50.078;14.854;2023-06-26T07:08:34;14.50;;;13.52;;
76475;SDS011;65308;50.078;14.854;2023-06-26T07:11:03;17.63;;;16.63;;
76475;SDS011;65308;50.078;14.854;2023-06-26T07:13:30;26.98;;;25.60;;
76475;SDS011;65308;50.078;14.854;2023-06-26T07:15:57;16.80;;;15.80;;
76475;SDS011;65308;50.078;14.854;2023-06-26T07:18:23;28.02;;;26.70;;
76475;SDS011;65308;50.078;14.854;2023-06-26T07:20:50;26.25;;;24.98;;
76475;SDS011;65308;50.078;14.854;2023-06-26T07:23:16;25.83;;;24.58;;
76475;SDS011;65308;50.078;14.854;2023-06-26T07:25:45;23.17;;;21.98;;
76475;SDS011;65308;50.078;14.854;2023-06-26T07:28:11;22.00;;;20.90;;
76475;SDS011;65308;50.078;14.854;2023-06-26T07:30:39;30.63;;;29.23;;
76475;SDS011;65308;50.078;14.854;2023-06-26T07:33:05;24.77;;;23.58;;
76475;SDS011;65308;50.078;14.854;2023-06-26T07:35:33;27.20;;;25.92;;
76475;SDS011;65308;50.078;14.854;2023-06-26T07:37:59;32.40;;;30.95;;
76475;SDS011;65308;50.078;14.854;2023-06-26T07:40:26;29.17;;;27.77;;
76475;SDS011;65308;50.078;14.854;2023-06-26T07:42:54;31.80;;;30.45;;
76475;SDS011;65308;50.078;14.854;2023-06-26T07:45:23;34.88;;;33.38;;
76475;SDS011;65308;50.078;14.854;2023-06-26T07:50:16;29.38;;;28.13;;
76475;SDS011;65308;50.078;14.854;2023-06-26T07:52:46;30.30;;;28.98;;
76475;SDS011;65308;50.078;14.854;2023-06-26T07:57:39;26.70;;;25.45;;
76475;SDS011;65308;50.078;14.854;2023-06-26T08:00:08;29.85;;;28.05;;
76475;SDS011;65308;50.078;14.854;2023-06-26T08:02:35;29.00;;;27.70;;
76475;SDS011;65308;50.078;14.854;2023-06-26T08:05:02;36.13;;;34.58;;
76475;SDS011;65308;50.078;14.854;2023-06-26T08:07:29;30.77;;;29.42;;
76475;SDS011;65308;50.078;14.854;2023-06-26T08:09:55;33.97;;;32.53;;
76475;SDS011;65308;50.078;14.854;2023-06-26T08:12:22;30.75;;;29.45;;
76475;SDS011;65308;50.078;14.854;2023-06-26T08:14:48;32.45;;;31.05;;
76475;SDS011;65308;50.078;14.854;2023-06-26T08:17:16;31.70;;;30.30;;
76475;SDS011;65308;50.078;14.854;2023-06-26T08:19:43;34.03;;;32.58;;
76475;SDS011;65308;50.078;14.854;2023-06-26T08:24:36;33.42;;;32.00;;
76475;SDS011;65308;50.078;14.854;2023-06-26T08:27:03;42.17;;;40.38;;
76475;SDS011;65308;50.078;14.854;2023-06-26T08:29:32;37.20;;;35.60;;
76475;SDS011;65308;50.078;14.854;2023-06-26T08:31:59;25.98;;;24.77;;
76475;SDS011;65308;50.078;14.854;2023-06-26T08:34:28;31.55;;;30.15;;
76475;SDS011;65308;50.078;14.854;2023-06-26T08:36:55;29.05;;;27.00;;
76475;SDS011;65308;50.078;14.854;2023-06-26T08:39:22;37.95;;;36.33;;
76475;SDS011;65308;50.078;14.854;2023-06-26T08:41:48;30.25;;;28.85;;
76475;SDS011;65308;50.078;14.854;2023-06-26T08:44:15;33.70;;;32.20;;
76475;SDS011;65308;50.078;14.854;2023-06-26T08:49:11;20.40;;;19.38;;
76475;SDS011;65308;50.078;14.854;2023-06-26T08:51:48;20.58;;;19.30;;
76475;SDS011;65308;50.078;14.854;2023-06-26T08:54:18;33.65;;;32.13;;
76475;SDS011;65308;50.078;14.854;2023-06-26T08:56:53;27.35;;;26.13;;
76475;SDS011;65308;50.078;14.854;2023-06-26T08:59:22;24.45;;;23.35;;
76475;SDS011;65308;50.078;14.854;2023-06-26T09:01:49;26.58;;;25.42;;
76475;SDS011;65308;50.078;14.854;2023-06-26T09:04:16;27.63;;;26.23;;
76475;SDS011;65308;50.078;14.854;2023-06-26T09:06:43;28.65;;;27.40;;
76475;SDS011;65308;50.078;14.854;2023-06-26T09:09:12;34.08;;;32.58;;
76475;SDS011;65308;50.078;14.854;2023-06-26T09:11:39;27.92;;;26.73;;
76475;SDS011;65308;50.078;14.854;2023-06-26T09:14:06;24.67;;;23.58;;
76475;SDS011;65308;50.078;14.854;2023-06-26T09:16:39;40.03;;;38.42;;
76475;SDS011;65308;50.078;14.854;2023-06-26T09:19:08;26.30;;;25.13;;
76475;SDS011;65308;50.078;14.854;2023-06-26T09:21:37;28.63;;;27.40;;
76475;SDS011;65308;50.078;14.854;2023-06-26T09:24:05;25.48;;;24.17;;
76475;SDS011;65308;50.078;14.854;2023-06-26T09:26:33;25.63;;;24.45;;
76475;SDS011;65308;50.078;14.854;2023-06-26T09:29:01;42.00;;;40.22;;
76475;SDS011;65308;50.078;14.854;2023-06-26T09:31:28;34.70;;;33.22;;
76475;SDS011;65308;50.078;14.854;2023-06-26T09:33:55;30.13;;;28.83;;
76475;SDS011;65308;50.078;14.854;2023-06-26T09:36:26;30.25;;;28.95;;
76475;SDS011;65308;50.078;14.854;2023-06-26T09:38:57;37.28;;;35.67;;
76475;SDS011;65308;50.078;14.854;2023-06-26T09:41:26;36.70;;;35.15;;
76475;SDS011;65308;50.078;14.854;2023-06-26T09:43:53;29.55;;;28.05;;
76475;SDS011;65308;50.078;14.854;2023-06-26T09:46:24;23.42;;;22.23;;
76475;SDS011;65308;50.078;14.854;2023-06-26T09:48:57;23.90;;;22.73;;
76475;SDS011;65308;50.078;14.854;2023-06-26T09:51:24;23.45;;;22.27;;
76475;SDS011;65308;50.078;14.854;2023-06-26T09:53:51;20.58;;;19.38;;
76475;SDS011;65308;50.078;14.854;2023-06-26T09:56:18;17.67;;;16.77;;
76475;SDS011;65308;50.078;14.854;2023-06-26T09:58:46;15.43;;;14.50;;
76475;SDS011;65308;50.078;14.854;2023-06-26T10:01:13;13.32;;;12.52;;
76475;SDS011;65308;50.078;14.854;2023-06-26T10:03:40;13.93;;;13.13;;
76475;SDS011;65308;50.078;14.854;2023-06-26T10:06:07;13.90;;;12.77;;
76475;SDS011;65308;50.078;14.854;2023-06-26T10:08:35;11.82;;;11.00;;
76475;SDS011;65308;50.078;14.854;2023-06-26T10:11:04;11.05;;;10.30;;
76475;SDS011;65308;50.078;14.854;2023-06-26T10:13:31;10.50;;;9.73;;
76475;SDS011;65308;50.078;14.854;2023-06-26T10:16:02;10.27;;;9.55;;
76475;SDS011;65308;50.078;14.854;2023-06-26T10:18:30;10.02;;;9.32;;
76475;SDS011;65308;50.078;14.854;2023-06-26T10:20:58;8.85;;;8.15;;
76475;SDS011;65308;50.078;14.854;2023-06-26T10:23:27;8.60;;;7.78;;
76475;SDS011;65308;50.078;14.854;2023-06-26T10:25:55;8.15;;;7.55;;
76475;SDS011;65308;50.078;14.854;2023-06-26T10:28:24;8.18;;;7.22;;
76475;SDS011;65308;50.078;14.854;2023-06-26T10:30:52;9.30;;;8.50;;
76475;SDS011;65308;50.078;14.854;2023-06-26T10:33:22;7.47;;;6.78;;
76475;SDS011;65308;50.078;14.854;2023-06-26T10:35:49;6.72;;;6.13;;
76475;SDS011;65308;50.078;14.854;2023-06-26T10:38:16;6.85;;;6.25;;
76475;SDS011;65308;50.078;14.854;2023-06-26T10:40:43;6.68;;;5.97;;
76475;SDS011;65308;50.078;14.854;2023-06-26T10:43:12;7.07;;;6.30;;
76475;SDS011;65308;50.078;14.854;2023-06-26T10:45:43;8.00;;;6.80;;
76475;SDS011;65308;50.078;14.854;2023-06-26T10:48:12;7.18;;;6.47;;
76475;SDS011;65308;50.078;14.854;2023-06-26T10:50:41;7.00;;;5.97;;
76475;SDS011;65308;50.078;14.854;2023-06-26T10:53:09;8.00;;;6.45;;
76475;SDS011;65308;50.078;14.854;2023-06-26T10:55:47;8.38;;;6.18;;
76475;SDS011;65308;50.078;14.854;2023-06-26T10:58:28;7.05;;;6.05;;
76475;SDS011;65308;50.078;14.854;2023-06-26T11:01:14;7.22;;;6.53;;
76475;SDS011;65308;50.078;14.854;2023-06-26T11:03:47;8.40;;;7.13;;
76475;SDS011;65308;50.078;14.854;2023-06-26T11:06:20;7.65;;;6.43;;
76475;SDS011;65308;50.078;14.854;2023-06-26T11:08:48;8.38;;;6.65;;
76475;SDS011;65308;50.078;14.854;2023-06-26T11:11:15;6.80;;;5.68;;
76475;SDS011;65308;50.078;14.854;2023-06-26T11:13:44;6.72;;;6.03;;
76475;SDS011;65308;50.078;14.854;2023-06-26T11:16:12;6.93;;;6.00;;
76475;SDS011;65308;50.078;14.854;2023-06-26T11:18:40;8.23;;;6.20;;
76475;SDS011;65308;50.078;14.854;2023-06-26T11:21:07;6.47;;;5.80;;
76475;SDS011;65308;50.078;14.854;2023-06-26T11:26:15;8.18;;;6.53;;
76475;SDS011;65308;50.078;14.854;2023-06-26T11:28:46;6.72;;;6.00;;
76475;SDS011;65308;50.078;14.854;2023-06-26T11:31:27;7.25;;;6.20;;
76475;SDS011;65308;50.078;14.854;2023-06-26T11:33:55;7.85;;;6.05;;
76475;SDS011;65308;50.078;14.854;2023-06-26T11:36:22;7.50;;;6.32;;
76475;SDS011;65308;50.078;14.854;2023-06-26T11:38:53;7.45;;;6.75;;
76475;SDS011;65308;50.078;14.854;2023-06-26T11:41:21;6.28;;;5.68;;
76475;SDS011;65308;50.078;14.854;2023-06-26T11:43:47;6.65;;;5.70;;
76475;SDS011;65308;50.078;14.854;2023-06-26T11:46:15;7.78;;;6.05;;
76475;SDS011;65308;50.078;14.854;2023-06-26T11:48:42;7.97;;;6.00;;
76475;SDS011;65308;50.078;14.854;2023-06-26T11:51:11;7.53;;;6.15;;
76475;SDS011;65308;50.078;14.854;2023-06-26T11:53:39;7.68;;;6.50;;
76475;SDS011;65308;50.078;14.854;2023-06-26T11:56:11;7.10;;;6.40;;
76475;SDS011;65308;50.078;14.854;2023-06-26T12:01:23;8.48;;;5.97;;
76475;SDS011;65308;50.078;14.854;2023-06-26T12:03:51;7.25;;;5.57;;
76475;SDS011;65308;50.078;14.854;2023-06-26T12:06:20;8.63;;;6.50;;
76475;SDS011;65308;50.078;14.854;2023-06-26T12:08:46;7.72;;;6.40;;
76475;SDS011;65308;50.078;14.854;2023-06-26T12:11:14;7.10;;;6.25;;
76475;SDS011;65308;50.078;14.854;2023-06-26T12:13:41;7.55;;;6.50;;
76475;SDS011;65308;50.078;14.854;2023-06-26T12:16:08;5.78;;;5.18;;
76475;SDS011;65308;50.078;14.854;2023-06-26T12:18:35;7.28;;;6.40;;
76475;SDS011;65308;50.078;14.854;2023-06-26T12:21:02;6.47;;;5.85;;
76475;SDS011;65308;50.078;14.854;2023-06-26T12:23:32;6.60;;;5.90;;
76475;SDS011;65308;50.078;14.854;2023-06-26T12:29:01;8.02;;;6.22;;
76475;SDS011;65308;50.078;14.854;2023-06-26T12:31:29;6.97;;;5.50;;
76475;SDS011;65308;50.078;14.854;2023-06-26T12:33:57;6.75;;;6.05;;
76475;SDS011;65308;50.078;14.854;2023-06-26T12:36:23;8.55;;;5.72;;
76475;SDS011;65308;50.078;14.854;2023-06-26T12:38:52;7.10;;;6.25;;
76475;SDS011;65308;50.078;14.854;2023-06-26T12:41:19;6.82;;;6.13;;
76475;SDS011;65308;50.078;14.854;2023-06-26T12:43:55;6.88;;;6.18;;
76475;SDS011;65308;50.078;14.854;2023-06-26T12:46:33;6.65;;;5.88;;
76475;SDS011;65308;50.078;14.854;2023-06-26T12:49:01;7.10;;;5.60;;
76475;SDS011;65308;50.078;14.854;2023-06-26T12:51:28;6.68;;;5.75;;
76475;SDS011;65308;50.078;14.854;2023-06-26T12:53:55;6.80;;;6.10;;
76475;SDS011;65308;50.078;14.854;2023-06-26T12:56:22;6.75;;;5.57;;
76475;SDS011;65308;50.078;14.854;2023-06-26T12:58:48;6.38;;;5.13;;
76475;SDS011;65308;50.078;14.854;2023-06-26T13:01:16;6.72;;;5.97;;
76475;SDS011;65308;50.078;14.854;2023-06-26T13:03:45;6.80;;;6.10;;
76475;SDS011;65308;50.078;14.854;2023-06-26T13:06:12;6.63;;;5.55;;
76475;SDS011;65308;50.078;14.854;2023-06-26T13:08:41;9.30;;;6.55;;
76475;SDS011;65308;50.078;14.854;2023-06-26T13:11:08;6.78;;;5.95;;
76475;SDS011;65308;50.078;14.854;2023-06-26T13:13:35;6.53;;;5.82;;
76475;SDS011;65308;50.078;14.854;2023-06-26T13:16:01;5.85;;;4.75;;
76475;SDS011;65308;50.078;14.854;2023-06-26T13:18:29;7.35;;;6.30;;
76475;SDS011;65308;50.078;14.854;2023-06-26T13:20:56;7.10;;;5.63;;
76475;SDS011;65308;50.078;14.854;2023-06-26T13:23:23;7.20;;;5.70;;
76475;SDS011;65308;50.078;14.854;2023-06-26T13:25:49;7.40;;;5.90;;
76475;SDS011;65308;50.078;14.854;2023-06-26T13:28:16;6.65;;;5.95;;
76475;SDS011;65308;50.078;14.854;2023-06-26T13:30:43;5.80;;;5.05;;
76475;SDS011;65308;50.078;14.854;2023-06-26T13:33:10;6.68;;;5.78;;
76475;SDS011;65308;50.078;14.854;2023-06-26T13:35:38;7.88;;;5.88;;
76475;SDS011;65308;50.078;14.854;2023-06-26T13:38:04;6.57;;;5.80;;
76475;SDS011;65308;50.078;14.854;2023-06-26T13:40:31;6.70;;;5.85;;
76475;SDS011;65308;50.078;14.854;2023-06-26T13:42:57;6.68;;;5.97;;
76475;SDS011;65308;50.078;14.854;2023-06-26T13:45:24;7.63;;;6.22;;
76475;SDS011;65308;50.078;14.854;2023-06-26T13:47:51;6.53;;;4.90;;
76475;SDS011;65308;50.078;14.854;2023-06-26T13:50:18;6.72;;;6.03;;
76475;SDS011;65308;50.078;14.854;2023-06-26T13:52:46;7.70;;;5.63;;
76475;SDS011;65308;50.078;14.854;2023-06-26T13:55:12;6.80;;;5.93;;
76475;SDS011;65308;50.078;14.854;2023-06-26T13:57:39;6.43;;;5.72;;
76475;SDS011;65308;50.078;14.854;2023-06-26T14:00:07;6.78;;;6.07;;
76475;SDS011;65308;50.078;14.854;2023-06-26T14:02:34;7.40;;;6.00;;
76475;SDS011;65308;50.078;14.854;2023-06-26T14:05:00;8.77;;;6.35;;
76475;SDS011;65308;50.078;14.854;2023-06-26T14:07:29;6.22;;;5.45;;
76475;SDS011;65308;50.078;14.854;2023-06-26T14:09:57;6.03;;;5.35;;
76475;SDS011;65308;50.078;14.854;2023-06-26T14:12:24;7.47;;;6.03;;
76475;SDS011;65308;50.078;14.854;2023-06-26T14:14:51;6.72;;;6.03;;
76475;SDS011;65308;50.078;14.854;2023-06-26T14:17:17;6.57;;;5.88;;
76475;SDS011;65308;50.078;14.854;2023-06-26T14:19:44;7.25;;;6.25;;
76475;SDS011;65308;50.078;14.854;2023-06-26T14:22:11;6.65;;;5.85;;
76475;SDS011;65308;50.078;14.854;2023-06-26T14:24:38;6.35;;;5.70;;
76475;SDS011;65308;50.078;14.854;2023-06-26T14:27:06;8.73;;;6.47;;
76475;SDS011;65308;50.078;14.854;2023-06-26T14:29:33;5.75;;;5.15;;
76475;SDS011;65308;50.078;14.854;2023-06-26T14:31:59;6.03;;;5.38;;
76475;SDS011;65308;50.078;14.854;2023-06-26T14:34:26;6.35;;;5.53;;
76475;SDS011;65308;50.078;14.854;2023-06-26T14:36:53;7.03;;;6.18;;
76475;SDS011;65308;50.078;14.854;2023-06-26T14:39:19;6.72;;;6.03;;
76475;SDS011;65308;50.078;14.854;2023-06-26T14:41:46;6.13;;;5.40;;
76475;SDS011;65308;50.078;14.854;2023-06-26T14:44:14;7.03;;;6.32;;
76475;SDS011;65308;50.078;14.854;2023-06-26T14:46:41;6.35;;;5.57;;
76475;SDS011;65308;50.078;14.854;2023-06-26T14:49:08;7.35;;;5.78;;
76475;SDS011;65308;50.078;14.854;2023-06-26T14:51:35;6.63;;;5.68;;
76475;SDS011;65308;50.078;14.854;2023-06-26T14:54:03;6.90;;;6.10;;
76475;SDS011;65308;50.078;14.854;2023-06-26T14:56:30;6.90;;;6.20;;
76475;SDS011;65308;50.078;14.854;2023-06-26T14:58:56;6.35;;;5.57;;